Time;durP1;ratioP1;P1;durP2;ratioP2;P2;SDS_P1;SDS_P2;PMS_P1;PMS_P2;Temp;Humidity;BMP_temperature;BMP_pressure;BME280_temperature;BME280_humidity;BME280_pressure;Samples;Min_cycle;Max_cycle;Signal;HPM_P1;HPM_P2
2020/12/20 00:01:43;;;;;;;46.88;30.70;;;;;;;5.61;84.23;101642.09;5027153;28;20417;-68
2020/12/20 00:04:10;;;;;;;49.47;30.52;;;;;;;5.76;84.44;101667.50;5024468;28;20022;-68
2020/12/20 00:06:44;;;;;;;49.90;31.15;;;;;;;5.53;84.77;101646.72;5026070;28;20527;-70
2020/12/20 00:09:21;;;;;;;55.70;33.42;;;;;;;5.57;86.06;101667.38;5019958;28;20049;-68
2020/12/20 00:11:48;;;;;;;82.85;53.03;;;;;;;5.55;85.76;101647.53;5025429;28;20036;-68
2020/12/20 00:14:26;;;;;;;307.05;224.20;;;;;;;5.58;86.99;101660.41;5026767;28;20188;-68
2020/12/20 00:17:03;;;;;;;47.20;33.50;;;;;;;5.36;86.58;101666.41;5020399;28;20488;-70
2020/12/20 00:19:30;;;;;;;51.63;33.08;;;;;;;4.93;86.86;101636.84;5019829;28;20026;-69
2020/12/20 00:21:57;;;;;;;56.60;31.52;;;;;;;4.78;87.13;101636.56;5025124;28;20488;-70
2020/12/20 00:24:23;;;;;;;44.78;27.10;;;;;;;4.62;88.57;101629.28;5027605;28;20476;-68
2020/12/20 00:26:50;;;;;;;39.03;24.52;;;;;;;4.76;88.27;101634.03;5024733;28;20069;-67
2020/12/20 00:29:15;;;;;;;34.95;21.42;;;;;;;5.04;87.81;101661.59;5027711;28;20034;-68
2020/12/20 00:31:41;;;;;;;35.20;22.08;;;;;;;5.24;86.49;101672.09;5021571;28;20045;-68
2020/12/20 00:34:07;;;;;;;43.10;22.83;;;;;;;5.33;85.98;101660.50;5015767;28;20057;-70
2020/12/20 00:36:33;;;;;;;44.78;27.35;;;;;;;5.30;86.41;101676.19;5024501;28;20674;-68
2020/12/20 00:38:59;;;;;;;54.65;30.35;;;;;;;5.24;87.52;101677.31;5024349;28;20041;-69
2020/12/20 00:41:24;;;;;;;56.40;32.33;;;;;;;5.26;88.24;101641.69;5021475;28;20038;-68
2020/12/20 00:43:50;;;;;;;40.83;24.67;;;;;;;5.58;88.09;101665.63;5017260;28;20417;-67
2020/12/20 00:46:15;;;;;;;35.03;21.27;;;;;;;5.66;86.26;101666.16;5026375;28;20038;-67
2020/12/20 00:48:42;;;;;;;38.05;24.85;;;;;;;5.66;87.52;101641.00;5020906;28;20041;-68
2020/12/20 00:51:08;;;;;;;34.15;23.48;;;;;;;5.97;84.93;101673.63;5022595;28;20037;-69
2020/12/20 00:53:35;;;;;;;31.15;19.98;;;;;;;5.72;83.42;101632.09;5008806;28;20572;-69
2020/12/20 00:56:00;;;;;;;32.03;21.17;;;;;;;5.86;83.92;101642.78;5004049;28;20034;-69
2020/12/20 00:58:26;;;;;;;29.70;19.52;;;;;;;5.78;83.55;101644.88;5022705;28;20037;-69
2020/12/20 01:00:51;;;;;;;34.00;22.77;;;;;;;5.86;83.62;101666.22;5016514;28;20021;-70
2020/12/20 01:03:17;;;;;;;32.50;22.90;;;;;;;5.84;84.22;101657.63;5023364;28;20037;-68
2020/12/20 01:05:44;;;;;;;35.80;22.05;;;;;;;6.01;85.12;101659.59;5022264;28;20045;-68
2020/12/20 01:08:09;;;;;;;36.42;23.10;;;;;;;6.04;83.68;101649.06;5021648;28;20032;-68
2020/12/20 01:10:36;;;;;;;37.08;23.70;;;;;;;6.08;83.66;101649.78;5017045;28;20026;-70
2020/12/20 01:13:02;;;;;;;35.60;22.73;;;;;;;5.87;83.15;101626.28;5024823;28;20034;-68
2020/12/20 01:15:29;;;;;;;36.70;23.63;;;;;;;6.03;83.54;101655.16;5027789;28;20032;-68
2020/12/20 01:17:56;;;;;;;35.85;23.20;;;;;;;5.95;83.39;101651.19;5021530;28;20069;-68
2020/12/20 01:20:22;;;;;;;33.78;22.48;;;;;;;5.89;84.35;101653.09;5029151;28;20029;-67
2020/12/20 01:22:48;;;;;;;34.72;21.75;;;;;;;5.88;84.40;101659.22;5035007;28;20051;-67
2020/12/20 01:25:13;;;;;;;34.88;21.65;;;;;;;5.56;84.56;101663.06;5035379;28;20028;-68
2020/12/20 01:27:39;;;;;;;39.45;25.67;;;;;;;5.47;85.16;101652.16;5034737;28;20052;-68
2020/12/20 01:30:06;;;;;;;39.03;23.67;;;;;;;5.33;85.63;101639.69;5035272;28;20025;-68
2020/12/20 01:32:31;;;;;;;37.17;23.67;;;;;;;5.41;85.27;101648.91;5035274;28;20041;-68
2020/12/20 01:34:57;;;;;;;37.17;24.23;;;;;;;5.44;85.60;101638.41;5035197;28;20024;-68
2020/12/20 01:37:22;;;;;;;39.25;23.02;;;;;;;5.44;86.31;101632.34;5035302;28;20502;-68
2020/12/20 01:39:47;;;;;;;37.58;23.85;;;;;;;5.47;86.49;101632.22;5035408;28;20451;-67
2020/12/20 01:42:13;;;;;;;36.17;23.58;;;;;;;5.47;86.27;101636.56;5035254;28;20462;-68
2020/12/20 01:44:39;;;;;;;37.42;23.52;;;;;;;5.16;86.13;101607.41;5035144;28;20033;-68
2020/12/20 01:47:05;;;;;;;39.63;23.35;;;;;;;5.16;87.39;101632.53;5034233;28;20038;-68
2020/12/20 01:49:31;;;;;;;35.05;22.45;;;;;;;4.90;86.99;101610.16;5034895;28;20028;-68
2020/12/20 01:51:57;;;;;;;35.05;21.75;;;;;;;5.03;86.82;101639.09;5034843;28;20040;-67
2020/12/20 01:54:23;;;;;;;34.58;21.40;;;;;;;5.11;86.87;101644.88;5034959;28;20037;-67
2020/12/20 01:56:48;;;;;;;37.30;20.35;;;;;;;5.13;85.73;101611.84;5035345;28;20052;-67
2020/12/20 01:59:14;;;;;;;33.55;20.33;;;;;;;5.43;85.70;101634.09;5034740;28;20088;-67
2020/12/20 02:01:39;;;;;;;30.70;20.10;;;;;;;5.52;85.26;101619.03;5034885;28;20091;-67
2020/12/20 02:04:05;;;;;;;33.15;21.50;;;;;;;5.41;85.67;101602.09;5034655;28;20499;-67
2020/12/20 02:06:30;;;;;;;32.67;21.42;;;;;;;5.53;85.22;101625.94;5034622;28;20029;-68
2020/12/20 02:08:56;;;;;;;30.75;20.88;;;;;;;5.56;85.90;101641.41;5034495;28;20021;-68
2020/12/20 02:11:21;;;;;;;33.70;21.85;;;;;;;5.41;86.11;101641.09;5034838;28;20103;-68
2020/12/20 02:13:49;;;;;;;33.92;21.83;;;;;;;5.37;85.99;101636.94;5033269;28;20026;-67
2020/12/20 02:16:16;;;;;;;34.00;21.08;;;;;;;5.39;85.77;101613.47;5033364;28;20032;-67
2020/12/20 02:18:42;;;;;;;35.35;21.48;;;;;;;5.43;85.74;101631.50;5034402;28;20021;-67
2020/12/20 02:21:15;;;;;;;33.30;20.23;;;;;;;5.55;85.60;101639.72;5034269;28;20029;-68
2020/12/20 02:23:42;;;;;;;42.10;20.60;;;;;;;5.59;84.73;101636.09;5034845;28;20108;-68
2020/12/20 02:26:10;;;;;;;33.35;20.05;;;;;;;5.42;85.58;101629.78;5033097;28;20512;-68
2020/12/20 02:28:36;;;;;;;34.85;20.83;;;;;;;5.30;86.46;101640.69;5034222;28;20030;-68
2020/12/20 02:31:01;;;;;;;34.13;20.45;;;;;;;5.03;86.56;101610.50;5034372;28;20056;-67
2020/12/20 02:33:27;;;;;;;34.95;21.98;;;;;;;5.06;87.71;101637.25;5034157;28;20401;-68
2020/12/20 02:35:52;;;;;;;32.65;21.23;;;;;;;5.10;87.54;101643.19;5034023;28;20477;-68
2020/12/20 02:38:18;;;;;;;37.05;21.83;;;;;;;5.25;86.85;101647.78;5034012;28;20120;-67
2020/12/20 02:40:43;;;;;;;31.08;19.02;;;;;;;5.20;85.84;101634.97;5033050;28;20032;-68
2020/12/20 02:43:08;;;;;;;29.33;18.95;;;;;;;5.36;85.43;101640.41;5034260;28;20029;-67
2020/12/20 02:45:34;;;;;;;27.10;17.85;;;;;;;5.37;84.10;101639.53;5034273;28;20037;-67
2020/12/20 02:48:00;;;;;;;28.73;18.95;;;;;;;5.24;84.97;101617.50;5033814;28;20112;-67
2020/12/20 02:50:25;;;;;;;27.73;18.25;;;;;;;5.12;84.87;101579.00;5033745;28;20389;-68
2020/12/20 02:52:50;;;;;;;30.23;18.92;;;;;;;5.52;84.30;101627.69;5034065;28;20033;-67
2020/12/20 02:55:16;;;;;;;29.30;18.48;;;;;;;5.33;84.54;101587.69;5033612;28;20080;-67
2020/12/20 02:57:41;;;;;;;30.55;18.30;;;;;;;5.44;86.46;101602.00;5032893;28;20056;-67
2020/12/20 03:00:07;;;;;;;29.83;17.55;;;;;;;5.55;87.34;101639.72;5033704;28;20032;-66
2020/12/20 03:02:32;;;;;;;30.95;20.48;;;;;;;5.37;86.36;101638.69;5033594;28;20032;-67
2020/12/20 03:04:58;;;;;;;34.88;20.85;;;;;;;5.01;85.49;101596.75;5052333;28;20555;-68
2020/12/20 03:07:24;;;;;;;36.08;22.10;;;;;;;5.23;85.80;101636.63;5053472;28;20035;-67
2020/12/20 03:09:50;;;;;;;33.75;21.98;;;;;;;5.18;86.53;101641.13;5053370;28;20021;-67
2020/12/20 03:12:17;;;;;;;36.80;22.00;;;;;;;5.04;86.58;101605.28;5053356;28;20400;-67
2020/12/20 03:14:43;;;;;;;35.53;22.67;;;;;;;5.38;85.51;101630.81;5053237;28;20103;-67
2020/12/20 03:17:09;;;;;;;29.13;17.50;;;;;;;5.30;85.54;101593.00;5052060;28;20060;-68
2020/12/20 03:19:34;;;;;;;29.23;17.55;;;;;;;5.60;84.83;101636.06;5053020;28;20064;-67
2020/12/20 03:22:00;;;;;;;29.80;19.05;;;;;;;5.57;85.16;101619.69;5053572;28;20063;-67
2020/12/20 03:24:25;;;;;;;27.85;18.42;;;;;;;5.51;84.46;101638.16;5053035;28;20056;-67
2020/12/20 03:26:51;;;;;;;29.27;20.20;;;;;;;5.14;86.34;101592.78;5053066;28;20045;-67
2020/12/20 03:29:16;;;;;;;38.65;23.88;;;;;;;5.15;86.80;101633.44;5052918;28;20017;-67
2020/12/20 03:31:41;;;;;;;40.00;22.77;;;;;;;4.88;87.96;101588.56;5052957;28;20036;-67
2020/12/20 03:34:07;;;;;;;35.72;21.35;;;;;;;5.13;87.16;101620.53;5052884;28;20021;-67
2020/12/20 03:36:32;;;;;;;34.92;21.30;;;;;;;5.11;87.79;101619.72;5053372;28;20450;-67
2020/12/20 03:38:58;;;;;;;31.13;20.52;;;;;;;5.11;88.05;101631.88;5052901;28;20408;-67
2020/12/20 03:41:23;;;;;;;31.88;19.10;;;;;;;4.79;87.64;101600.13;5053234;28;20540;-67
2020/12/20 03:43:49;;;;;;;33.03;19.13;;;;;;;4.86;87.77;101629.31;5052830;28;20458;-67
2020/12/20 03:46:14;;;;;;;30.88;19.63;;;;;;;5.00;87.28;101632.28;5052672;28;20029;-67
2020/12/20 03:48:39;;;;;;;35.10;20.25;;;;;;;4.87;87.33;101605.91;5052488;28;20029;-67
2020/12/20 03:51:05;;;;;;;36.92;21.27;;;;;;;5.06;87.08;101641.59;5051706;28;20036;-67
2020/12/20 03:53:30;;;;;;;34.42;20.60;;;;;;;4.76;87.60;101597.66;5052769;28;20396;-67
2020/12/20 03:55:56;;;;;;;31.80;20.80;;;;;;;5.05;87.16;101613.91;5052814;28;20025;-67
2020/12/20 03:58:21;;;;;;;31.73;19.00;;;;;;;4.95;86.77;101585.66;5052321;28;20025;-68
2020/12/20 04:00:46;;;;;;;36.13;19.52;;;;;;;5.40;86.39;101638.56;5049188;28;20401;-69
2020/12/20 04:03:12;;;;;;;30.45;19.90;;;;;;;5.45;85.34;101645.28;5051957;28;20075;-67
2020/12/20 04:05:37;;;;;;;32.15;20.80;;;;;;;5.54;84.80;101653.66;5052452;28;20117;-67
2020/12/20 04:08:03;;;;;;;31.02;19.98;;;;;;;5.62;84.45;101654.19;5051592;28;20028;-67
2020/12/20 04:10:28;;;;;;;36.20;20.10;;;;;;;5.47;84.67;101619.22;5051518;28;20120;-67
2020/12/20 04:12:54;;;;;;;35.90;19.23;;;;;;;5.65;84.72;101648.88;5052303;28;20434;-67
2020/12/20 04:15:19;;;;;;;30.27;19.23;;;;;;;5.27;85.60;101591.41;5052366;28;20021;-68
2020/12/20 04:17:44;;;;;;;29.05;18.83;;;;;;;5.66;85.53;101647.94;5052132;28;20104;-68
2020/12/20 04:20:10;;;;;;;122.80;76.35;;;;;;;5.55;84.94;101617.16;5043574;28;20029;-68
2020/12/20 04:22:35;;;;;;;29.88;19.20;;;;;;;5.58;84.49;101613.59;5048909;28;20075;-68
2020/12/20 04:25:01;;;;;;;26.02;16.95;;;;;;;5.69;84.81;101624.41;5052245;28;20024;-67
2020/12/20 04:27:26;;;;;;;35.30;20.20;;;;;;;5.69;84.08;101622.66;5050957;28;20041;-70
2020/12/20 04:29:52;;;;;;;36.80;22.42;;;;;;;5.83;84.59;101653.31;5049671;28;20031;-68
2020/12/20 04:32:18;;;;;;;30.50;19.10;;;;;;;5.79;85.28;101656.13;5029487;28;20424;-68
2020/12/20 04:34:43;;;;;;;31.48;18.30;;;;;;;5.85;84.62;101659.31;5029132;28;20096;-68
2020/12/20 04:37:09;;;;;;;30.10;20.38;;;;;;;5.89;84.48;101655.69;5029383;28;20029;-68
2020/12/20 04:39:34;;;;;;;31.00;20.35;;;;;;;5.72;83.84;101624.28;5029716;28;20037;-68
2020/12/20 04:42:00;;;;;;;29.65;19.27;;;;;;;5.85;84.51;101659.31;5029806;28;20034;-68
2020/12/20 04:44:25;;;;;;;36.53;20.52;;;;;;;5.55;85.66;101656.19;5031367;28;20038;-67
2020/12/20 04:46:52;;;;;;;32.33;20.90;;;;;;;5.35;85.88;101636.13;5031999;28;20029;-67
2020/12/20 04:49:20;;;;;;;41.60;22.63;;;;;;;5.64;86.08;101670.59;5030993;28;20033;-67
2020/12/20 04:51:48;;;;;;;33.33;21.23;;;;;;;5.75;85.41;101673.59;5031790;28;20041;-68
2020/12/20 04:54:16;;;;;;;36.15;22.25;;;;;;;5.69;84.65;101632.22;5032051;28;20033;-68
2020/12/20 04:56:42;;;;;;;34.03;21.25;;;;;;;5.73;84.61;101672.81;5030633;28;20037;-67
2020/12/20 04:59:07;;;;;;;33.50;20.83;;;;;;;5.52;85.44;101666.69;5032103;28;20025;-67
2020/12/20 05:01:33;;;;;;;38.03;23.70;;;;;;;5.44;86.29;101680.00;5031944;28;20041;-67
2020/12/20 05:03:59;;;;;;;35.80;23.30;;;;;;;5.27;86.32;101651.19;5032055;28;20049;-67
2020/12/20 05:06:27;;;;;;;40.42;24.35;;;;;;;5.25;86.68;101659.94;5030712;28;20171;-67
2020/12/20 05:09:03;;;;;;;43.35;26.65;;;;;;;5.22;86.77;101661.75;5030523;28;20021;-67
2020/12/20 05:11:35;;;;;;;41.05;24.75;;;;;;;5.54;86.53;101692.66;5030634;28;20507;-68
2020/12/20 05:14:01;;;;;;;43.80;25.70;;;;;;;5.51;85.70;101678.00;5031720;28;20029;-68
2020/12/20 05:16:31;;;;;;;42.03;26.05;;;;;;;5.34;85.96;101657.00;5030588;28;20056;-67
2020/12/20 05:18:57;;;;;;;40.22;23.85;;;;;;;5.14;85.96;101636.97;5031096;28;20271;-67
2020/12/20 05:21:27;;;;;;;53.67;26.00;;;;;;;5.10;86.73;101656.19;5032535;28;20108;-67
2020/12/20 05:23:53;;;;;;;46.85;28.30;;;;;;;5.08;87.39;101674.41;5034110;28;20119;-67
2020/12/20 05:26:30;;;;;;;44.03;27.35;;;;;;;5.12;88.22;101693.34;5034024;28;20080;-67
2020/12/20 05:29:13;;;;;;;40.95;25.48;;;;;;;5.13;88.50;101702.81;5035270;28;20515;-67
2020/12/20 05:31:39;;;;;;;38.40;24.08;;;;;;;5.06;88.09;101670.16;5035383;28;20495;-67
2020/12/20 05:34:05;;;;;;;41.95;24.75;;;;;;;5.35;87.20;101706.34;5033933;28;20026;-67
2020/12/20 05:36:32;;;;;;;43.72;23.85;;;;;;;5.16;87.11;101671.53;5035183;28;20033;-67
2020/12/20 05:39:12;;;;;;;40.55;23.77;;;;;;;5.22;88.10;101705.09;5017474;28;20033;-68
2020/12/20 05:41:39;;;;;;;39.45;22.30;;;;;;;5.06;87.99;101683.16;5035676;28;20178;-67
2020/12/20 05:44:24;;;;;;;42.70;23.35;;;;;;;5.05;88.60;101697.91;5033785;28;20036;-67
2020/12/20 05:46:50;;;;;;;51.50;27.30;;;;;;;4.98;88.70;101712.88;5034959;28;20034;-67
2020/12/20 05:49:19;;;;;;;47.25;29.73;;;;;;;5.08;88.76;101707.34;5034929;28;20478;-67
2020/12/20 05:52:10;;;;;;;50.95;33.65;;;;;;;5.22;88.26;101705.09;5034913;28;20121;-68
2020/12/20 05:54:41;;;;;;;49.25;31.50;;;;;;;5.17;87.08;101678.44;5033700;28;20036;-67
2020/12/20 05:57:07;;;;;;;47.97;28.85;;;;;;;5.29;87.51;101696.16;5033606;28;20025;-67
2020/12/20 05:59:33;;;;;;;48.53;29.65;;;;;;;5.42;87.81;101707.78;5034844;28;20108;-67
2020/12/20 06:02:02;;;;;;;40.90;26.05;;;;;;;5.34;86.80;101686.44;5033389;28;20108;-67
2020/12/20 06:04:30;;;;;;;41.65;24.73;;;;;;;5.61;87.07;101710.56;5033421;28;20028;-67
2020/12/20 06:06:57;;;;;;;37.47;24.30;;;;;;;5.72;86.89;101711.91;5034630;28;20029;-67
2020/12/20 06:09:28;;;;;;;37.35;25.48;;;;;;;5.75;86.04;101699.63;5033557;28;20029;-67
2020/12/20 06:11:55;;;;;;;52.17;32.58;;;;;;;5.80;85.54;101708.06;5034506;28;20465;-67
2020/12/20 06:14:29;;;;;;;51.80;34.63;;;;;;;5.77;86.07;101713.44;5034536;28;20113;-67
2020/12/20 06:17:14;;;;;;;48.13;32.35;;;;;;;5.78;85.60;101715.13;5034677;28;20472;-67
2020/12/20 06:20:00;;;;;;;46.40;30.40;;;;;;;5.87;85.48;101714.75;5033900;28;20051;-67
2020/12/20 06:22:26;;;;;;;47.13;31.73;;;;;;;5.79;85.86;101701.19;5034351;28;20026;-67
2020/12/20 06:24:55;;;;;;;48.67;31.75;;;;;;;5.55;86.06;101668.34;5032992;28;20048;-68
2020/12/20 06:27:23;;;;;;;54.53;29.27;;;;;;;5.66;86.88;101672.19;5032760;28;20124;-67
2020/12/20 06:30:07;;;;;;;55.58;33.95;;;;;;;5.68;86.16;101677.34;5032814;28;20086;-67
2020/12/20 06:32:46;;;;;;;63.92;38.38;;;;;;;5.88;85.47;101708.66;5034109;28;20037;-68
2020/12/20 06:35:26;;;;;;;71.57;39.90;;;;;;;5.94;84.93;101711.94;5034087;28;20029;-68
2020/12/20 06:37:52;;;;;;;66.23;40.80;;;;;;;5.93;84.77;101703.28;5033383;28;20033;-67
2020/12/20 06:40:30;;;;;;;74.72;44.05;;;;;;;5.86;84.90;101714.81;5032758;28;20411;-67
2020/12/20 06:42:59;;;;;;;78.40;44.03;;;;;;;5.86;84.45;101712.19;5034068;28;20384;-67
2020/12/20 06:45:27;;;;;;;75.28;41.15;;;;;;;5.90;84.73;101725.03;5034535;28;20034;-67
2020/12/20 06:47:59;;;;;;;71.45;41.05;;;;;;;5.87;84.81;101719.09;5032556;28;20408;-68
2020/12/20 06:50:45;;;;;;;64.07;37.53;;;;;;;5.91;84.35;101729.34;5033041;28;20030;-67
2020/12/20 06:53:18;;;;;;;63.17;36.70;;;;;;;5.97;84.13;101725.66;5033813;28;20431;-68
2020/12/20 06:55:45;;;;;;;61.22;33.95;;;;;;;6.00;83.61;101716.91;5032455;28;20034;-67
2020/12/20 06:58:13;;;;;;;61.13;34.25;;;;;;;5.96;83.62;101723.13;5032415;28;20029;-68
2020/12/20 07:00:41;;;;;;;58.03;35.35;;;;;;;6.00;83.74;101729.91;5032368;28;20025;-67
2020/12/20 07:03:31;;;;;;;61.40;35.58;;;;;;;6.02;83.83;101730.72;5033472;28;20477;-67
2020/12/20 07:06:10;;;;;;;60.45;33.85;;;;;;;5.99;84.41;101728.22;5033354;28;20092;-67
2020/12/20 07:08:36;;;;;;;55.92;30.85;;;;;;;5.72;83.78;101704.94;5032124;28;20021;-67
2020/12/20 07:11:07;;;;;;;53.00;29.10;;;;;;;5.94;82.74;101731.03;5032414;28;20499;-67
2020/12/20 07:13:44;;;;;;;45.65;27.33;;;;;;;6.00;82.44;101735.94;5032401;28;20512;-67
2020/12/20 07:16:15;;;;;;;48.72;26.90;;;;;;;5.86;82.92;101723.47;5033407;28;20083;-67
2020/12/20 07:18:55;;;;;;;64.95;28.65;;;;;;;5.80;83.22;101723.69;5032097;28;20029;-67
2020/12/20 07:21:23;;;;;;;53.97;29.52;;;;;;;5.86;82.71;101739.06;5032456;28;20036;-69
2020/12/20 07:23:54;;;;;;;46.88;26.55;;;;;;;5.73;82.80;101719.63;5032973;28;20448;-67
2020/12/20 07:26:22;;;;;;;43.78;26.50;;;;;;;6.04;82.24;101749.69;5014444;28;20025;-67
2020/12/20 07:28:49;;;;;;;51.05;28.30;;;;;;;5.89;82.07;101712.09;5032274;28;20420;-68
2020/12/20 07:31:19;;;;;;;54.22;27.75;;;;;;;5.87;82.35;101724.31;5032320;28;20045;-68
2020/12/20 07:33:46;;;;;;;48.53;25.90;;;;;;;5.99;81.48;101723.00;5028427;28;20116;-68
2020/12/20 07:36:12;;;;;;;44.10;24.65;;;;;;;6.20;80.93;101756.00;5032438;28;20025;-67
2020/12/20 07:38:38;;;;;;;45.63;25.98;;;;;;;6.27;80.19;101749.63;5031253;28;20029;-67
2020/12/20 07:41:11;;;;;;;47.40;26.88;;;;;;;6.20;81.14;101748.19;5031091;28;20086;-68
2020/12/20 07:43:37;;;;;;;59.67;27.95;;;;;;;6.26;81.18;101758.34;5031350;28;20061;-67
2020/12/20 07:46:05;;;;;;;51.40;28.88;;;;;;;6.28;80.50;101761.75;5032497;28;20108;-67
2020/12/20 07:48:30;;;;;;;51.30;28.80;;;;;;;6.15;81.01;101737.13;5031078;28;20029;-67
2020/12/20 07:51:24;;;;;;;54.65;30.92;;;;;;;6.32;80.89;101765.94;5032668;28;20071;-67
2020/12/20 07:53:55;;;;;;;89.35;47.88;;;;;;;6.19;81.01;101737.84;5030168;28;20121;-67
2020/12/20 07:56:23;;;;;;;50.40;27.13;;;;;;;6.43;79.73;101769.84;5032095;28;20034;-68
2020/12/20 07:58:50;;;;;;;58.38;28.20;;;;;;;6.27;81.73;101741.81;5031285;28;20106;-67
2020/12/20 08:01:15;;;;;;;53.17;29.10;;;;;;;6.36;81.83;101759.69;5031316;28;20033;-67
2020/12/20 08:03:41;;;;;;;47.78;28.58;;;;;;;6.60;79.82;101764.78;5032427;28;20394;-68
2020/12/20 08:06:09;;;;;;;60.83;34.63;;;;;;;6.58;80.40;101738.81;5032428;28;20036;-67
2020/12/20 08:08:35;;;;;;;68.35;37.42;;;;;;;6.76;79.69;101742.41;5031150;28;20540;-67
2020/12/20 08:11:20;;;;;;;54.95;31.70;;;;;;;6.89;79.15;101757.53;5031131;28;20109;-68
2020/12/20 08:14:12;;;;;;;46.80;28.00;;;;;;;6.93;78.00;101766.91;5032494;28;20084;-67
2020/12/20 08:16:43;;;;;;;47.08;28.00;;;;;;;6.78;78.16;101739.72;5031729;28;20448;-68
2020/12/20 08:19:19;;;;;;;42.50;25.40;;;;;;;6.88;77.18;101763.63;5030841;28;20112;-68
2020/12/20 08:22:05;;;;;;;51.38;28.30;;;;;;;6.95;77.48;101762.44;5031728;28;20037;-68
2020/12/20 08:24:39;;;;;;;52.28;28.38;;;;;;;6.90;78.89;101764.41;5031090;28;20036;-66
2020/12/20 08:27:17;;;;;;;55.85;31.20;;;;;;;6.80;79.21;101732.69;5030335;28;20049;-68
2020/12/20 08:29:48;;;;;;;57.20;35.35;;;;;;;6.80;79.41;101717.91;5025194;28;20045;-69
2020/12/20 08:32:17;;;;;;;63.22;34.03;;;;;;;7.07;77.90;101746.28;5029822;28;20524;-68
2020/12/20 08:34:42;;;;;;;46.25;27.27;;;;;;;6.74;77.48;101753.78;5030798;28;20040;-67
2020/12/20 08:37:10;;;;;;;51.50;26.92;;;;;;;6.46;77.88;101743.69;5030537;28;20408;-67
2020/12/20 08:39:36;;;;;;;49.22;27.45;;;;;;;6.41;78.47;101743.00;5031858;28;20025;-68
2020/12/20 08:42:06;;;;;;;51.90;30.67;;;;;;;6.25;78.77;101711.56;5031312;28;20025;-67
2020/12/20 08:44:32;;;;;;;45.03;27.90;;;;;;;6.50;78.58;101719.19;5031260;28;20108;-67
2020/12/20 08:47:14;;;;;;;46.42;27.02;;;;;;;6.31;79.20;101714.78;5032104;28;20104;-67
2020/12/20 08:50:00;;;;;;;46.97;27.15;;;;;;;6.66;78.67;101750.69;5031314;28;20175;-67
2020/12/20 08:52:27;;;;;;;50.28;27.40;;;;;;;6.67;78.07;101748.00;5031771;28;20038;-67
2020/12/20 08:54:55;;;;;;;41.00;25.92;;;;;;;6.49;77.45;101717.53;5030734;28;20128;-68
2020/12/20 08:57:31;;;;;;;46.50;26.83;;;;;;;6.60;76.17;101710.94;5034927;28;20079;-68
2020/12/20 09:00:14;;;;;;;50.97;26.52;;;;;;;6.67;77.58;101706.31;5034806;28;20060;-68
2020/12/20 09:02:40;;;;;;;43.53;24.10;;;;;;;6.76;75.57;101705.09;5033383;28;20382;-68
2020/12/20 09:05:11;;;;;;;41.78;24.80;;;;;;;6.88;75.65;101704.53;5033275;28;20034;-68
2020/12/20 09:07:44;;;;;;;43.90;28.13;;;;;;;7.12;75.42;101733.03;5033436;28;20496;-68
2020/12/20 09:10:16;;;;;;;42.35;25.23;;;;;;;7.00;74.17;101731.84;5033221;28;20091;-68
2020/12/20 09:12:56;;;;;;;48.92;27.50;;;;;;;6.89;76.67;101718.44;5034468;28;20029;-66
2020/12/20 09:15:24;;;;;;;37.83;23.95;;;;;;;7.00;75.35;101687.53;5035837;28;20392;-67
2020/12/20 09:17:51;;;;;;;41.45;23.55;;;;;;;7.08;74.49;101691.47;5035545;28;20036;-68
2020/12/20 09:20:19;;;;;;;47.13;29.30;;;;;;;7.08;74.86;101699.28;5034319;28;20057;-67
2020/12/20 09:22:46;;;;;;;51.10;27.05;;;;;;;7.17;75.42;101716.28;5034264;28;20087;-67
2020/12/20 09:25:16;;;;;;;50.00;27.45;;;;;;;7.04;75.34;101726.41;5035424;28;20040;-67
2020/12/20 09:27:53;;;;;;;45.50;27.83;;;;;;;7.08;75.57;101712.31;5035619;28;20056;-67
2020/12/20 09:30:38;;;;;;;47.80;28.67;;;;;;;7.12;75.71;101718.28;5034094;28;20025;-68
2020/12/20 09:33:29;;;;;;;50.15;28.80;;;;;;;7.15;76.01;101728.53;5028248;28;20766;-71
2020/12/20 09:36:18;;;;;;;58.50;32.20;;;;;;;7.17;76.13;101731.94;5017162;28;20055;-69
2020/12/20 09:38:45;;;;;;;53.15;27.98;;;;;;;7.21;75.35;101730.88;5018913;28;20041;-71
2020/12/20 09:41:19;;;;;;;39.83;24.50;;;;;;;7.31;74.32;101719.13;5027416;28;20099;-68
2020/12/20 09:43:46;;;;;;;54.40;34.15;;;;;;;7.14;75.72;101716.41;5015191;28;20543;-68
2020/12/20 09:46:22;;;;;;;77.78;44.45;;;;;;;7.21;76.04;101719.59;5022853;28;20045;-68
2020/12/20 09:48:49;;;;;;;106.70;60.67;;;;;;;7.27;76.37;101717.56;5012244;28;20452;-68
2020/12/20 09:51:15;;;;;;;59.83;32.10;;;;;;;7.33;73.83;101716.47;5019737;28;20077;-68
2020/12/20 09:53:40;;;;;;;52.88;29.15;;;;;;;7.25;74.79;101710.72;5058482;28;20030;-69
2020/12/20 09:56:06;;;;;;;52.70;29.25;;;;;;;7.04;75.65;101686.47;5025034;28;20391;-68
2020/12/20 09:58:32;;;;;;;87.88;47.15;;;;;;;7.15;75.25;101712.06;5024915;28;20457;-68
2020/12/20 10:00:57;;;;;;;119.18;68.78;;;;;;;7.20;75.45;101700.50;5023320;28;20026;-66
2020/12/20 10:03:24;;;;;;;83.72;49.38;;;;;;;7.30;75.31;101717.44;5029032;28;20072;-68
2020/12/20 10:05:51;;;;;;;40.58;24.35;;;;;;;7.07;73.93;101681.13;5027509;28;20110;-68
2020/12/20 10:08:17;;;;;;;45.35;27.52;;;;;;;7.00;75.46;101680.53;5012151;28;20033;-69
2020/12/20 10:10:42;;;;;;;51.67;32.47;;;;;;;6.98;76.24;101694.56;5021339;28;20021;-73
2020/12/20 10:13:08;;;;;;;51.13;29.08;;;;;;;6.98;75.86;101681.50;5026917;28;20021;-70
2020/12/20 10:15:34;;;;;;;40.60;26.08;;;;;;;7.20;75.26;101697.06;5019927;28;20115;-69
2020/12/20 10:18:03;;;;;;;40.85;26.80;;;;;;;7.22;74.04;101688.25;5026825;28;20489;-70
2020/12/20 10:20:31;;;;;;;50.38;28.08;;;;;;;6.94;77.03;101646.09;5022900;28;20034;-67
2020/12/20 10:22:56;;;;;;;44.90;28.13;;;;;;;7.26;76.26;101689.81;5026807;28;20490;-70
2020/12/20 10:25:22;;;;;;;40.03;24.73;;;;;;;7.25;74.90;101688.09;5017455;28;20040;-70
2020/12/20 10:27:47;;;;;;;43.28;25.92;;;;;;;7.33;75.33;101691.22;5025915;28;20096;-71
2020/12/20 10:30:13;;;;;;;43.80;27.02;;;;;;;7.28;75.39;101685.34;5025334;28;20034;-68
2020/12/20 10:32:39;;;;;;;46.45;27.02;;;;;;;6.90;75.40;101652.34;5023113;28;20681;-70
2020/12/20 10:35:05;;;;;;;43.72;26.60;;;;;;;6.89;75.82;101659.34;5024014;28;20025;-70
2020/12/20 10:37:30;;;;;;;45.17;26.33;;;;;;;7.00;75.06;101649.25;5016266;28;20990;-68
2020/12/20 10:39:56;;;;;;;46.63;27.60;;;;;;;6.97;75.91;101640.75;5026029;28;20053;-69
2020/12/20 10:42:21;;;;;;;41.97;25.90;;;;;;;7.05;75.65;101669.91;5020433;28;20088;-68
2020/12/20 10:44:46;;;;;;;44.72;26.48;;;;;;;6.81;76.42;101638.81;5026094;28;20056;-68
2020/12/20 10:47:12;;;;;;;41.17;25.65;;;;;;;6.92;76.12;101647.91;5022894;28;20034;-67
2020/12/20 10:49:37;;;;;;;38.97;24.55;;;;;;;7.01;76.39;101671.78;5022006;28;20095;-68
2020/12/20 10:52:03;;;;;;;45.05;27.63;;;;;;;6.84;76.79;101636.06;5027427;28;20037;-69
2020/12/20 10:54:31;;;;;;;41.05;26.20;;;;;;;6.95;76.51;101669.50;5025292;28;20040;-68
2020/12/20 10:56:58;;;;;;;42.13;26.42;;;;;;;6.83;78.31;101636.13;5024418;28;20052;-69
2020/12/20 10:59:32;;;;;;;33.40;20.13;;;;;;;7.21;75.67;101668.28;5023554;28;20112;-68
2020/12/20 11:01:58;;;;;;;44.42;26.92;;;;;;;7.07;75.84;101636.81;5020069;28;20459;-71
2020/12/20 11:04:24;;;;;;;40.72;26.60;;;;;;;7.16;75.75;101645.97;5024138;28;20032;-69
2020/12/20 11:06:54;;;;;;;50.25;28.08;;;;;;;7.09;75.95;101634.97;5022924;28;20030;-68
2020/12/20 11:09:20;;;;;;;48.92;28.52;;;;;;;7.06;76.28;101640.34;5023465;28;20033;-68
2020/12/20 11:11:45;;;;;;;46.90;26.83;;;;;;;7.09;75.24;101629.75;5025259;28;20034;-69
2020/12/20 11:14:11;;;;;;;37.47;21.70;;;;;;;6.99;73.82;101597.22;5023233;28;20029;-68
2020/12/20 11:16:36;;;;;;;44.03;26.85;;;;;;;7.26;75.21;101637.66;5022843;28;20061;-70
2020/12/20 11:19:02;;;;;;;41.70;25.98;;;;;;;7.31;74.82;101655.69;5026713;28;20025;-69
2020/12/20 11:21:27;;;;;;;43.35;26.75;;;;;;;7.00;75.96;101622.34;5021554;28;20470;-68
2020/12/20 11:23:53;;;;;;;43.88;25.90;;;;;;;6.92;75.56;101617.50;5025529;28;20037;-68